Flight Track Log - Related Links

Times and Time Zones

All times are in EDT time to prevent confusion due to time zone crossing. See the AWE1972 flight status page for this flight to view local times or setup timezone preferences in your user account.

Time Position Orientation Groundspeed Altitude Reporting Facility
EDT Latitude Longitude Course Direction KTS MPH feet Rate Location/Type
09:30AM 37.6500 -122.3333 72° East 174 200 2,800  Level Northern Cal TRACON
09:32AM 37.6500 -122.1833 90° East 263 303 4,800 1,300 Climbing Northern Cal TRACON
09:33AM 37.6500 -122.1000 90° East 286 329 6,700 1,899 Climbing Northern Cal TRACON
09:34AM 37.7308 -122.0164 39° Northeast 285 328 9,200 1,856 Climbing Oakland Center
09:35AM 37.9845 -121.7955 72° East  Level FlightAware Approximate
09:35AM 37.7622 -121.9192 68° East 296 341 11,000  Level Oakland Center
09:37AM 37.8356 -121.7092 66° East 335 386 13,000 918 Climbing Oakland Center
09:38AM 37.8750 -121.5808 69° East 377 434 13,800 1,131 Climbing Oakland Center
09:39AM 37.8964 -121.4314 80° East 411 473 15,300 1,525 Climbing Oakland Center
09:40AM 37.9214 -121.2867 78° East 422 486 16,900 1,426 Climbing Oakland Center
09:41AM 37.9458 -121.1425 78° East 423 487 18,200 1,033 Climbing Oakland Center
09:42AM 37.9694 -120.9933 79° East 431 496 19,000 1,022 Climbing Oakland Center
09:44AM 38.0197 -120.6911 78° East 441 507 21,300 1,088 Climbing Oakland Center
09:45AM 38.0436 -120.5372 79° East 448 516 22,300 1,033 Climbing Oakland Center
09:46AM 38.0694 -120.3789 78° East 458 527 23,400 1,082 Climbing Oakland Center
09:47AM 38.0989 -120.1892 79° East 458 527 24,500 1,220 Climbing Oakland Center
09:48AM 38.1250 -120.0319 78° East 458 527 25,900 1,024 Climbing Oakland Center
09:49AM 38.1514 -119.8742 78° East 458 527 26,600 689 Climbing Oakland Center
09:50AM 38.1739 -119.7153 80° East 457 526 27,300 590 Climbing Oakland Center
09:51AM 38.2000 -119.5531 78° East 465 535 27,800 689 Climbing Oakland Center
09:52AM 38.2247 -119.3872 79° East 470 541 28,700 787 Climbing Oakland Center
09:53AM 38.2494 -119.2242 79° East 472 543 29,400 689 Climbing Oakland Center
09:54AM 38.2731 -119.0594 80° East 472 543 30,100 639 Climbing Oakland Center
09:55AM 38.2972 -118.8975 79° East 472 543 30,700 293 Climbing Oakland Center
09:57AM 38.3494 -118.5289 80° East 485 558 31,000 98 Climbing Salt Lake Center
09:58AM 38.3714 -118.3722 80° East 492 566 31,000  Level Salt Lake Center
09:59AM 38.3956 -118.1992 80° East 492 566 31,000  Level Salt Lake Center
10:00AM 38.4211 -118.0258 79° East 492 566 31,000  Level Oakland Center
10:01AM 38.4450 -117.8525 80° East 494 568 31,000  Level Oakland Center
10:02AM 38.4683 -117.6783 80° East 494 568 31,000  Level Oakland Center
10:03AM 38.4917 -117.5050 80° East 494 568 31,000  Level Oakland Center
10:04AM 38.5144 -117.3303 80° East 494 568 31,000  Level Oakland Center
10:05AM 38.5269 -117.1533 85° East 494 568 31,000  Level Oakland Center
10:06AM 38.5369 -116.9772 86° East 494 568 31,000  Level Oakland Center
10:07AM 38.5456 -116.8014 86° East 493 567 31,000  Level Oakland Center
10:08AM 38.5558 -116.5906 86° East 494 568 31,000  Level Oakland Center
10:10AM 38.5647 -116.4133 86° East 494 568 31,000  Level Salt Lake Center
10:11AM 38.5717 -116.2369 87° East 495 570 31,000  Level Salt Lake Center
10:12AM 38.5792 -116.0617 87° East 495 570 31,000  Level Salt Lake Center
10:14AM 38.5931 -115.7075 87° East 496 571 31,000  Level Salt Lake Center
10:15AM 38.6025 -115.5322 86° East 496 571 31,000  Level Salt Lake Center
10:16AM 38.6089 -115.3450 87° East 497 572 31,000  Level Salt Lake Center
10:18AM 38.6244 -114.9883 87° East 503 579 31,000  Level Salt Lake Center
10:19AM 38.6322 -114.7747 87° East 502 578 31,000  Level Salt Lake Center
10:20AM 38.6369 -114.5975 88° East 501 577 31,000  Level Salt Lake Center
10:21AM 38.6431 -114.4189 87° East 501 577 31,000  Level Salt Lake Center
10:24AM 38.6594 -113.8800 89° East 509 586 31,000 24 Level Salt Lake Center
10:25AM 38.6633 -113.6997 88° East 510 587 31,100  Climbing Salt Lake Center
10:26AM 38.6678 -113.5200 88° East 508 585 31,000 -33 Descending Salt Lake Center
10:28AM 38.6761 -113.1178 88° East 512 589 31,000  Level Salt Lake Center
10:29AM 38.6797 -112.9361 88° East 512 589 31,000  Level Salt Lake Center
10:30AM 38.6828 -112.7533 89° East 512 589 31,000  Level Salt Lake Center
10:31AM 38.6869 -112.5700 88° East 512 589 31,000  Level Salt Lake Center
10:32AM 38.6886 -112.3875 89° East 512 589 31,000  Level Salt Lake Center
10:33AM 38.6911 -112.2053 89° East 513 590 31,000  Level Salt Lake Center
10:34AM 38.6931 -112.0233 89° East 512 589 31,000  Level Salt Lake Center
10:35AM 38.6958 -111.8439 89° East 509 586 31,000  Level Salt Lake Center
10:36AM 38.6969 -111.6631 89° East 508 585 31,000  Level Salt Lake Center
10:37AM 38.6978 -111.4481 90° East 506 582 31,000  Level Salt Lake Center
10:38AM 38.6997 -111.2700 89° East 504 580 31,000 359 Level Salt Lake Center
10:40AM 38.6986 -110.9108 90° East 499 574 32,100 551 Climbing Salt Lake Center
10:41AM 38.7006 -110.7467 89° East 490 564 32,700 439 Climbing Salt Lake Center
10:42AM 38.6997 -110.5503 90° East 491 565 33,000 146 Climbing Salt Lake Center
10:43AM 38.6989 -110.3803 90° East 497 572 33,000  Level Salt Lake Center
10:44AM 38.6989 -110.1819 90° East 498 573 33,000  Level Salt Lake Center
10:45AM 38.6967 -110.0097 91° East 503 579 33,000  Level Salt Lake Center
10:47AM 38.6928 -109.7511 91° East 503 579 33,000  Level Denver Center
10:48AM 38.6911 -109.5775 91° East 506 582 33,000  Level Denver Center
10:49AM 38.6878 -109.3717 91° East 517 595 33,000  Level Denver Center
10:51AM 38.6858 -109.0853 90° East 514 592 33,000  Level Salt Lake Center
10:52AM 38.6831 -108.8842 91° East 513 590 33,000  Level Salt Lake Center
10:53AM 38.6775 -108.6200 91° East 511 588 33,000  Level Denver Center
10:54AM 38.6742 -108.4461 91° East 513 590 33,000  Level Denver Center
10:56AM 38.6658 -108.0644 91° East 518 596 33,000  Level Denver Center
10:57AM 38.6608 -107.8589 92° East 518 596 33,000  Level Denver Center
10:58AM 38.6558 -107.6536 92° East 518 596 33,000  Level Denver Center
10:59AM 38.6494 -107.4483 92° East 518 596 33,000  Level Denver Center
11:01AM 38.6392 -107.0958 92° East 518 596 33,000  Level Denver Center
11:02AM 38.6308 -106.8764 93° East 520 598 33,000  Level Denver Center
11:05AM 38.6178 -106.5100 92° East 518 596 33,000  Level Denver Center
11:06AM 38.6114 -106.3275 93° East 518 596 33,000  Level Denver Center
11:07AM 38.6031 -106.1128 93° East 517 595 33,000  Level Denver Center
11:08AM 38.5961 -105.9347 93° East 518 596 33,000  Level Denver Center
11:09AM 38.5892 -105.7597 93° East 519 597 33,000  Level Denver Center
11:10AM 38.5811 -105.5764 93° East 519 597 33,000  Level Denver Center
11:11AM 38.5700 -105.3567 94° East 519 597 33,000  Level Denver Center
11:12AM 38.5619 -105.1728 93° East 520 598 33,000  Level Denver Center
11:13AM 38.5533 -104.9942 93° East 511 588 33,000  Level Denver Center
11:14AM 38.5450 -104.8164 93° East 508 585 33,000  Level Denver Center
11:15AM 38.5356 -104.6375 94° East 508 585 33,000  Level Denver Center
11:16AM 38.5247 -104.4242 94° East 506 582 33,000  Level Denver Center
11:17AM 38.5133 -104.2458 95° East 507 583 33,000  Level Denver Center
11:19AM 38.4919 -103.8686 94° East 514 592 33,000  Level Denver Center
11:20AM 38.4814 -103.6892 94° East 522 601 33,000  Level Denver Center
11:22AM 38.4592 -103.3233 94° East 527 606 33,000  Level Kansas City Center
11:23AM 38.4458 -103.1156 95° East 527 606 33,000  Level Kansas City Center
11:24AM 38.4342 -102.9364 95° East 527 606 33,000  Level Kansas City Center
11:25AM 38.4214 -102.7583 95° East 527 606 33,000  Level Kansas City Center
11:26AM 38.4078 -102.5522 95° East 526 605 33,000  Level Kansas City Center
11:27AM 38.3947 -102.3756 95° East 525 604 33,000  Level Kansas City Center
11:28AM 38.3792 -102.1358 95° East 530 610 33,000  Level Denver Center
11:29AM 38.3656 -101.9586 96° East 528 608 33,000  Level Denver Center
11:30AM 38.3506 -101.7528 95° East 525 604 33,000  Level Denver Center
11:31AM 38.3375 -101.5750 95° East 525 604 33,000  Level Denver Center
11:32AM 38.3200 -101.3686 96° East 524 603 33,000  Level Denver Center
11:34AM 38.3067 -101.1944 96° East 518 596 33,000  Level Denver Center
11:34AM 38.2922 -101.0181 96° East 518 596 33,000  Level Kansas City Center
11:35AM 38.2778 -100.8444 96° East 516 594 33,000  Level Kansas City Center
11:36AM 38.2636 -100.6692 96° East 516 594 33,000  Level Kansas City Center
11:38AM 38.2450 -100.4653 97° East 517 595 33,000  Level Kansas City Center
11:39AM 38.2314 -100.2894 96° East 517 595 33,000 48 Level Kansas City Center
11:40AM 38.2111 -100.0828 97° East 520 598 33,100  Climbing Kansas City Center
11:42AM 38.1761 -99.7036 97° East 521 600 33,000 -24 Descending Kansas City Center
11:44AM 38.1411 -99.3361 97° East 520 598 33,000  Level Kansas City Center
11:46AM 38.1064 -98.9753 97° East 518 596 33,000  Level Kansas City Center
11:47AM 38.0869 -98.7953 98° East 518 596 33,000  Level Kansas City Center
11:49AM 38.0481 -98.4025 97° East 513 590 33,000  Level Kansas City Center
11:50AM 38.0289 -98.2225 98° East 514 592 33,000  Level Kansas City Center
11:51AM 38.0108 -98.0439 97° East 513 590 33,000  Level Kansas City Center
11:52AM 37.9881 -97.8500 98° East 512 589 33,000  Level Kansas City Center
11:53AM 37.9703 -97.6775 97° East 513 590 33,000 194 Level Kansas City Center
11:54AM 37.9500 -97.5003 98° East 513 590 33,400 581 Climbing Kansas City Center
11:55AM 37.9281 -97.3175 99° East 512 589 34,200 516 Climbing Kansas City Center
11:57AM 37.8875 -96.9658 98° East 505 581 35,000 258 Climbing Kansas City Center
11:58AM 37.8619 -96.7503 98° East 514 592 35,000  Level Kansas City Center
12:01PM 37.7922 -96.1767 99° East 523 602 35,000  Level Memphis Center
12:02PM 37.7694 -95.9953 99° East 523 602 35,000  Level Memphis Center
12:04PM 37.7464 -95.8150 99° East 523 602 35,000  Level Memphis Center
12:05PM 37.7228 -95.6347 99° East 523 602 35,000  Level Memphis Center
12:06PM 37.6947 -95.4147 99° East 523 602 35,000  Level Memphis Center
12:07PM 37.6753 -95.2667 99° East 520 598 35,000  Level Kansas City Center
12:08PM 37.6506 -95.0861 100° East 521 600 35,000  Level Kansas City Center
12:09PM 37.6219 -94.8706 99° East 516 594 35,000  Level Kansas City Center
12:10PM 37.5961 -94.6889 100° East 521 600 35,000  Level Kansas City Center
12:11PM 37.5719 -94.5069 99° East 521 600 35,000  Level Kansas City Center
12:12PM 37.5469 -94.3264 100° East 522 601 35,000  Level Kansas City Center
12:13PM 37.5206 -94.1442 100° East 522 601 35,000  Level Kansas City Center
12:14PM 37.4900 -93.9331 100° East 523 602 35,000  Level Kansas City Center
12:15PM 37.4614 -93.7528 101° East 523 602 35,000  Level Kansas City Center
12:17PM 37.4050 -93.3939 101° East 524 603 35,000  Level Memphis Center
12:18PM 37.3764 -93.2150 101° East 524 603 35,000  Level Kansas City Center
12:19PM 37.3486 -93.0372 101° East 523 602 35,000  Level Kansas City Center
12:20PM 37.3142 -92.8258 102° East 521 600 35,000  Level Kansas City Center
12:21PM 37.2853 -92.6511 102° East 520 598 35,000  Level Kansas City Center
12:22PM 37.2567 -92.4750 101° East 520 598 35,000  Level Kansas City Center
12:23PM 37.2269 -92.3003 102° East 519 597 35,000  Level Kansas City Center
12:24PM 37.1972 -92.1264 102° East 518 596 35,000  Level Kansas City Center
12:26PM 37.1328 -91.7428 103° East 514 592 35,000  Level Kansas City Center
12:27PM 37.1019 -91.5669 102° East 514 592 35,000  Level Kansas City Center
12:28PM 37.0708 -91.3950 103° East 514 592 35,000  Level Kansas City Center
12:29PM 37.0400 -91.2211 102° East 513 590 35,000  Level Kansas City Center
12:30PM 37.0094 -91.0528 103° East 504 580 35,000  Level Kansas City Center
12:31PM 36.9794 -90.8817 102° East 503 579 35,000  Level Kansas City Center
12:32PM 36.9419 -90.6736 103° East 507 583 35,000  Level Kansas City Center
12:33PM 36.9089 -90.5042 104° East 506 582 35,000  Level Kansas City Center
12:34PM 36.8769 -90.3281 103° East 506 582 35,000  Level Kansas City Center
12:37PM 36.8094 -89.9647 103° East 507 583 35,000  Level Memphis Center
12:39PM 36.7442 -89.6225 103° East 506 582 35,000  Level Memphis Center
12:40PM 36.7106 -89.4514 104° East 506 582 35,000  Level Memphis Center
12:41PM 36.6711 -89.2444 103° East 508 585 35,000  Level Memphis Center
12:42PM 36.6369 -89.0750 104° East 508 585 35,000  Level Memphis Center
12:44PM 36.5683 -88.7314 104° East 508 585 35,000  Level Memphis Center
12:45PM 36.5336 -88.5597 104° East 508 585 35,000  Level Memphis Center
12:46PM 36.4994 -88.3881 104° East 508 585 35,000  Level Memphis Center
12:47PM 36.4578 -88.1881 104° East 508 585 35,000  Level Memphis Center
12:48PM 36.4214 -88.0175 105° East 508 585 35,000  Level Memphis Center
12:49PM 36.3867 -87.8467 104° East 508 585 35,000  Level Memphis Center
12:50PM 36.3503 -87.6772 105° East 508 585 35,000  Level Memphis Center
12:51PM 36.3142 -87.5050 105° East 508 585 35,000  Level Memphis Center
12:52PM 36.2778 -87.3344 105° East 508 585 35,000  Level Memphis Center
12:53PM 36.2353 -87.1367 105° East 508 585 35,000  Level Memphis Center
12:54PM 36.1969 -86.9692 106° East 508 585 35,000  Level Memphis Center
12:55PM 36.1600 -86.8008 105° East 509 586 35,000  Level Memphis Center
12:56PM 36.1311 -86.6322 102° East 509 586 35,000  Level Memphis Center
12:57PM 36.1194 -86.4594 95° East 507 583 35,000  Level Memphis Center
12:58PM 36.1042 -86.2578 95° East 505 581 35,000  Level Memphis Center
12:59PM 36.0903 -86.0842 96° East 504 580 35,000  Level Memphis Center
01:00PM 36.0781 -85.9100 95° East 504 580 35,000  Level Memphis Center
01:01PM 36.0636 -85.7281 96° East 504 580 35,000  Level Memphis Center
01:02PM 36.0497 -85.5556 96° East 504 580 35,000  Level Memphis Center
01:04PM 36.0361 -85.3828 96° East 504 580 35,000  Level Memphis Center
01:06PM 36.0081 -85.0314 96° East 507 583 35,000  Level Memphis Center
01:07PM 35.9931 -84.8394 95° East 502 578 35,000  Level Atlanta Center
01:08PM 35.9753 -84.6672 97° East 512 589 35,000  Level Atlanta Center
01:09PM 35.9594 -84.4903 96° East 512 589 35,000 -633 Level Atlanta Center
01:11PM 35.9269 -84.1439 97° East 512 589 33,100 -967 Descending Atlanta Center
01:12PM 35.9103 -83.9669 97° East 512 589 32,100 -950 Descending Atlanta Center
01:13PM 35.9017 -83.7953 93° East 512 589 31,200 -950 Descending Atlanta Center
01:14PM 35.8992 -83.6236 91° East 507 583 30,200 -950 Descending Atlanta Center
01:15PM 35.8961 -83.4467 91° East 502 578 29,300 -600 Descending Atlanta Center
01:16PM 35.8953 -83.2750 90° East 502 578 29,000 -150 Descending Atlanta Center
01:17PM 35.8878 -83.0878 93° East 491 565 29,000 -400 Level Atlanta Center
01:18PM 35.8822 -82.9186 92° East 484 557 28,200 -1,400 Descending Atlanta Center
01:20PM 35.8767 -82.6011 91° East 467 537 24,800 -1,833 Descending Atlanta Center
01:21PM 35.8706 -82.4422 93° East 457 526 22,700 -2,100 Descending Atlanta Center
01:22PM 35.8664 -82.2964 92° East 451 519 20,600 -1,850 Descending Atlanta Center
01:23PM 35.8647 -82.1683 91° East 420 483 19,000 -1,700 Descending Atlanta Center
01:24PM 35.8622 -82.0222 91° East 415 478 17,200 -1,901 Descending Atlanta Center
01:25PM 35.7781 -81.8528 121° Southeast 389 448 14,500 -1,852 Descending Atlanta Center
01:26PM 35.7072 -81.7447 129° Southeast 373 429 12,600 -1,592 Descending Atlanta Center
01:27PM 35.6814 -81.7019 127° Southeast 379 436 11,900 -1,180 Descending Atlanta Center
01:27PM 35.6386 -81.6394 130° Southeast 359 413 11,400 -700 Descending Atlanta Center
01:28PM 35.6211 -81.6092 125° Southeast 365 420 11,200 -267 Descending Atlanta Center
01:29PM 35.5653 -81.5267 130° Southeast 336 387 11,000 -774 Descending Atlanta Center
01:29PM 35.5350 -81.4714 124° Southeast 310 357 10,000 -1,000 Descending Atlanta Center
01:31PM 35.5531 -81.3381 81° East 274 315 9,000 -492 Descending Atlanta Center
01:31PM 35.5683 -81.2764 73° East 263 303 9,000  Level Atlanta Center
01:32PM 35.5736 -81.2403 80° East 263 303 9,000 -513 Level Atlanta Center
01:33PM 35.5894 -81.1069 82° East 258 297 8,000 -650 Descending Atlanta Center
01:34PM 35.5800 -81.0614 104° East 264 304 7,700 -885 Descending Atlanta Center
01:34PM 35.5644 -81.0236 117° Southeast 249 287 7,100 -700 Descending Atlanta Center
01:35PM 35.5428 -80.9964 134° Southeast 234 269 7,000 -387 Descending Atlanta Center
01:35PM 35.5133 -80.9822 159° South 212 244 6,700 -1,074 Descending Atlanta Center
01:37PM 35.3983 -80.9711 175° South 186 214 4,100 -1,111 Descending Atlanta Center
01:38PM 35.3481 -80.9653 175° South 178 205 3,200 -878 Descending Atlanta Center
01:39PM 35.3022 -80.9644 179° South 154 177 2,300 -836 Descending Atlanta Center
01:40PM 35.2603 -80.9586 174° South 140 161 1,500 -787 Descending Atlanta Center
01:43PM 35.2137 -80.9491 39° Northeast  Level Estimated
01:50PM 35.2137 -80.9491 39° Northeast  Level Estimated
01:51PM 35.2137 -80.9491 39° Northeast  Level Estimated
01:52PM 35.2137 -80.9491 39° Northeast  Level Estimated
01:53PM 35.2137 -80.9491 39° Northeast  Level Estimated

Login

Don't have an account? Register now (free) for customized features, flight alerts, and more!